Time;durP1;ratioP1;P1;durP2;ratioP2;P2;SDS_P1;SDS_P2;PMS_P1;PMS_P2;Temp;Humidity;BMP_temperature;BMP_pressure;BME280_temperature;BME280_humidity;BME280_pressure;Samples;Min_cycle;Max_cycle;Signal;HPM_P1;HPM_P2
2023/03/21 00:00:31;;;;;;;50.40;21.53;;;;;;;;;;5049122;28;20286;-73
2023/03/21 00:02:57;;;;;;;30.20;15.50;;;;;;;;;;5038073;28;20245;-73
2023/03/21 00:05:23;;;;;;;28.93;13.97;;;;;;;;;;5042908;28;20669;-72
2023/03/21 00:07:49;;;;;;;37.13;16.03;;;;;;;;;;5044491;28;20240;-73
2023/03/21 00:10:16;;;;;;;24.97;13.07;;;;;;;;;;5052542;28;20599;-74
2023/03/21 00:12:42;;;;;;;25.57;11.57;;;;;;;;;;5047294;28;20182;-74
2023/03/21 00:15:08;;;;;;;29.30;13.40;;;;;;;;;;5046726;28;20258;-74
2023/03/21 00:17:35;;;;;;;25.20;11.03;;;;;;;;;;5047328;28;20189;-73
2023/03/21 00:20:07;;;;;;;25.07;11.77;;;;;;;;;;5046021;28;20188;-75
2023/03/21 00:22:36;;;;;;;29.50;13.87;;;;;;;;;;5040158;28;20185;-74
2023/03/21 00:25:02;;;;;;;24.07;11.57;;;;;;;;;;5040688;28;20209;-73
2023/03/21 00:27:29;;;;;;;20.40;10.80;;;;;;;;;;5047878;28;20201;-74
2023/03/21 00:29:55;;;;;;;24.03;12.53;;;;;;;;;;5045851;28;20275;-72
2023/03/21 00:32:21;;;;;;;39.40;18.33;;;;;;;;;;5046458;28;20185;-74
2023/03/21 00:34:48;;;;;;;26.70;13.43;;;;;;;;;;5041176;28;20254;-74
2023/03/21 00:37:17;;;;;;;35.53;17.07;;;;;;;;;;5028750;28;20268;-73
2023/03/21 00:39:47;;;;;;;40.60;19.53;;;;;;;;;;5041330;28;20171;-74
2023/03/21 00:42:17;;;;;;;30.50;15.30;;;;;;;;;;5036433;28;20190;-72
2023/03/21 00:44:44;;;;;;;14.73;8.93;;;;;;;;;;5042546;28;20190;-71
2023/03/21 00:47:12;;;;;;;8.87;5.67;;;;;;;;;;5040868;28;20243;-73
2023/03/21 00:49:39;;;;;;;8.17;5.03;;;;;;;;;;5035385;28;20186;-74
2023/03/21 00:52:07;;;;;;;7.77;4.73;;;;;;;;;;5038165;28;20197;-72
2023/03/21 00:54:34;;;;;;;6.73;4.93;;;;;;;;;;5041885;28;20201;-74
2023/03/21 00:57:01;;;;;;;6.33;4.60;;;;;;;;;;5026893;28;20193;-73
2023/03/21 00:59:29;;;;;;;6.17;4.80;;;;;;;;;;5035690;28;20247;-73
2023/03/21 01:01:59;;;;;;;10.90;6.30;;;;;;;;;;5031348;28;20189;-73
2023/03/21 01:04:26;;;;;;;29.77;15.70;;;;;;;;;;5037315;28;20209;-74
2023/03/21 01:06:54;;;;;;;26.20;13.07;;;;;;;;;;5038040;28;20201;-74
2023/03/21 01:09:21;;;;;;;36.83;18.47;;;;;;;;;;5038710;28;20186;-72
2023/03/21 01:11:48;;;;;;;29.73;16.47;;;;;;;;;;5043785;28;20229;-74
2023/03/21 01:14:15;;;;;;;23.17;12.50;;;;;;;;;;5043197;28;20225;-73
2023/03/21 01:16:41;;;;;;;13.13;7.10;;;;;;;;;;5058547;28;20182;-72
2023/03/21 01:19:08;;;;;;;10.50;5.40;;;;;;;;;;5043041;28;20208;-72
2023/03/21 01:21:35;;;;;;;7.10;4.83;;;;;;;;;;5050818;28;20202;-73
2023/03/21 01:24:01;;;;;;;7.60;4.53;;;;;;;;;;5054708;28;20185;-72
2023/03/21 01:26:28;;;;;;;5.03;4.13;;;;;;;;;;5028809;28;20289;-73
2023/03/21 01:28:54;;;;;;;4.93;4.00;;;;;;;;;;5043145;28;20689;-74
2023/03/21 01:31:20;;;;;;;10.70;5.63;;;;;;;;;;5037481;28;20205;-71
2023/03/21 01:33:47;;;;;;;8.03;5.60;;;;;;;;;;5033931;28;20572;-74
2023/03/21 01:36:16;;;;;;;12.47;7.20;;;;;;;;;;5042541;28;20190;-73
2023/03/21 01:38:43;;;;;;;12.07;7.13;;;;;;;;;;5040835;28;20652;-72
2023/03/21 01:41:17;;;;;;;10.50;6.17;;;;;;;;;;5039156;28;20193;-72
2023/03/21 01:43:44;;;;;;;7.50;5.63;;;;;;;;;;5055654;28;20375;-73
2023/03/21 01:46:28;;;;;;;8.13;5.20;;;;;;;;;;5038758;28;20410;-73
2023/03/21 01:49:06;;;;;;;7.97;4.97;;;;;;;;;;5038370;28;20277;-73
2023/03/21 01:51:34;;;;;;;7.47;4.40;;;;;;;;;;5042032;28;20214;-74
2023/03/21 01:54:02;;;;;;;5.73;4.23;;;;;;;;;;5041716;28;20212;-73
2023/03/21 01:56:32;;;;;;;6.03;4.40;;;;;;;;;;5044876;28;20181;-73
2023/03/21 01:59:08;;;;;;;8.00;4.83;;;;;;;;;;5040722;28;20670;-73
2023/03/21 02:02:10;;;;;;;5.70;4.73;;;;;;;;;;5025511;28;20189;-72
2023/03/21 02:04:49;;;;;;;6.93;4.40;;;;;;;;;;5042445;28;20328;-74
2023/03/21 02:07:24;;;;;;;6.73;4.00;;;;;;;;;;5053518;28;20185;-73
2023/03/21 02:09:54;;;;;;;7.57;5.10;;;;;;;;;;5025464;28;20209;-74
2023/03/21 02:12:22;;;;;;;8.37;4.60;;;;;;;;;;5040007;28;20844;-73
2023/03/21 02:14:49;;;;;;;6.20;4.70;;;;;;;;;;5041993;28;20768;-72
2023/03/21 02:17:53;;;;;;;5.20;4.53;;;;;;;;;;5043504;28;20265;-72
2023/03/21 02:20:43;;;;;;;5.57;4.70;;;;;;;;;;5042955;28;20185;-72
2023/03/21 02:23:09;;;;;;;6.03;4.50;;;;;;;;;;5024814;28;20197;-73
2023/03/21 02:25:51;;;;;;;15.20;7.87;;;;;;;;;;5040541;28;20857;-72
2023/03/21 02:28:23;;;;;;;12.63;7.03;;;;;;;;;;5039277;28;20186;-73
2023/03/21 02:31:03;;;;;;;9.83;5.93;;;;;;;;;;5040962;28;20693;-73
2023/03/21 02:33:30;;;;;;;10.60;5.83;;;;;;;;;;5041441;28;20211;-73
2023/03/21 02:36:15;;;;;;;9.83;5.53;;;;;;;;;;5023653;28;20234;-73
2023/03/21 02:38:53;;;;;;;6.07;4.87;;;;;;;;;;5037221;28;20174;-74
2023/03/21 02:41:33;;;;;;;7.60;4.73;;;;;;;;;;5057590;28;20247;-72
2023/03/21 02:44:02;;;;;;;7.10;4.50;;;;;;;;;;5041253;28;20204;-73
2023/03/21 02:46:38;;;;;;;8.77;5.10;;;;;;;;;;5042112;28;20592;-74
2023/03/21 02:49:12;;;;;;;6.57;4.73;;;;;;;;;;5036588;28;20213;-73
2023/03/21 02:51:40;;;;;;;7.27;4.80;;;;;;;;;;5040850;28;20210;-73
2023/03/21 02:54:09;;;;;;;12.03;6.87;;;;;;;;;;5027295;28;20205;-73
2023/03/21 02:56:36;;;;;;;10.77;6.77;;;;;;;;;;5036291;28;20178;-73
2023/03/21 02:59:05;;;;;;;20.80;8.93;;;;;;;;;;5042177;28;20190;-73
2023/03/21 03:01:32;;;;;;;14.97;7.93;;;;;;;;;;5041443;28;20255;-74
2023/03/21 03:03:59;;;;;;;14.80;7.70;;;;;;;;;;5038261;28;20725;-73
2023/03/21 03:06:45;;;;;;;10.70;6.00;;;;;;;;;;5044275;28;20182;-72
2023/03/21 03:09:19;;;;;;;13.03;7.00;;;;;;;;;;5042265;28;20200;-73
2023/03/21 03:11:50;;;;;;;19.57;9.93;;;;;;;;;;5041719;28;20232;-73
2023/03/21 03:14:32;;;;;;;16.40;8.33;;;;;;;;;;5041320;28;20260;-73
2023/03/21 03:17:06;;;;;;;8.03;5.40;;;;;;;;;;5043535;28;20186;-73
2023/03/21 03:19:45;;;;;;;8.27;5.40;;;;;;;;;;5041301;28;20649;-72
2023/03/21 03:22:22;;;;;;;8.33;5.07;;;;;;;;;;5045726;28;20186;-73
2023/03/21 03:24:51;;;;;;;7.40;5.13;;;;;;;;;;5042211;28;20248;-74
2023/03/21 03:27:21;;;;;;;6.87;4.93;;;;;;;;;;5026363;28;20269;-73
2023/03/21 03:29:47;;;;;;;6.30;4.63;;;;;;;;;;5040967;28;20174;-73
2023/03/21 03:32:17;;;;;;;6.47;4.40;;;;;;;;;;5042780;28;20193;-73
2023/03/21 03:34:48;;;;;;;7.63;4.73;;;;;;;;;;5039918;28;20206;-74
2023/03/21 03:37:17;;;;;;;11.20;5.53;;;;;;;;;;5038143;28;20772;-73
2023/03/21 03:39:49;;;;;;;14.03;7.30;;;;;;;;;;5041291;28;20182;-73
2023/03/21 03:42:21;;;;;;;13.07;6.80;;;;;;;;;;5038507;28;20190;-73
2023/03/21 03:44:51;;;;;;;12.80;6.63;;;;;;;;;;5042038;28;20217;-74
2023/03/21 03:47:53;;;;;;;8.37;5.73;;;;;;;;;;5027469;28;20623;-73
2023/03/21 03:50:39;;;;;;;10.50;6.03;;;;;;;;;;4985591;28;20301;-72
2023/03/21 03:53:27;;;;;;;6.60;5.10;;;;;;;;;;5033093;28;20205;-73
2023/03/21 03:55:56;;;;;;;8.63;5.20;;;;;;;;;;5040803;28;20735;-73
2023/03/21 03:58:23;;;;;;;9.70;6.17;;;;;;;;;;5041427;28;20269;-74
2023/03/21 04:00:51;;;;;;;11.57;7.47;;;;;;;;;;5044557;28;20193;-72
2023/03/21 04:03:17;;;;;;;11.10;7.10;;;;;;;;;;5043500;28;20196;-73
2023/03/21 04:05:46;;;;;;;10.70;6.93;;;;;;;;;;5041774;28;20554;-72
2023/03/21 04:08:14;;;;;;;9.90;6.97;;;;;;;;;;5043175;28;20181;-74
2023/03/21 04:10:43;;;;;;;8.87;5.57;;;;;;;;;;5037011;28;20850;-73
2023/03/21 04:13:09;;;;;;;8.57;6.57;;;;;;;;;;5041750;28;20186;-73
2023/03/21 04:15:59;;;;;;;12.80;6.73;;;;;;;;;;5033502;28;20630;-73
2023/03/21 04:18:26;;;;;;;7.90;5.70;;;;;;;;;;5038643;28;20182;-72
2023/03/21 04:20:53;;;;;;;11.77;6.90;;;;;;;;;;5036799;28;20248;-73
2023/03/21 04:23:20;;;;;;;7.83;5.67;;;;;;;;;;5036436;28;20191;-73
2023/03/21 04:25:49;;;;;;;10.73;5.80;;;;;;;;;;5041945;28;20813;-73
2023/03/21 04:28:16;;;;;;;7.60;5.27;;;;;;;;;;5041309;28;20264;-73
2023/03/21 04:30:59;;;;;;;7.03;5.30;;;;;;;;;;5034418;28;20198;-72
2023/03/21 04:33:26;;;;;;;12.77;7.27;;;;;;;;;;5038268;28;20205;-73
2023/03/21 04:35:55;;;;;;;7.73;5.60;;;;;;;;;;5041782;28;20197;-73
2023/03/21 04:38:25;;;;;;;8.07;4.77;;;;;;;;;;5056133;28;20881;-73
2023/03/21 04:40:51;;;;;;;8.13;5.30;;;;;;;;;;5054459;28;20188;-73
2023/03/21 04:43:17;;;;;;;6.60;4.93;;;;;;;;;;5020937;28;20705;-72
2023/03/21 04:45:44;;;;;;;8.97;5.40;;;;;;;;;;5047897;28;20311;-72
2023/03/21 04:48:13;;;;;;;10.27;6.40;;;;;;;;;;5042184;28;20459;-73
2023/03/21 04:50:40;;;;;;;7.67;5.10;;;;;;;;;;5044817;28;20282;-73
2023/03/21 04:53:06;;;;;;;6.17;4.80;;;;;;;;;;5024075;28;20602;-72
2023/03/21 04:55:32;;;;;;;7.13;4.63;;;;;;;;;;5048109;28;20779;-72
2023/03/21 04:57:58;;;;;;;7.00;4.77;;;;;;;;;;5041593;28;20276;-72
2023/03/21 05:00:25;;;;;;;7.50;4.60;;;;;;;;;;5042532;28;20676;-72
2023/03/21 05:02:51;;;;;;;9.87;5.67;;;;;;;;;;5038699;28;20186;-73
2023/03/21 05:05:17;;;;;;;7.63;5.40;;;;;;;;;;5041055;28;20198;-73
2023/03/21 05:07:44;;;;;;;8.00;5.18;;;;;;;;;;5039163;28;20427;-72
2023/03/21 05:10:11;;;;;;;7.10;5.30;;;;;;;;;;5039568;28;20228;-74
2023/03/21 05:12:40;;;;;;;7.73;5.27;;;;;;;;;;5022256;28;20841;-73
2023/03/21 05:15:06;;;;;;;8.57;4.53;;;;;;;;;;5043207;28;20197;-73
2023/03/21 05:17:32;;;;;;;5.63;4.40;;;;;;;;;;5041642;28;20751;-73
2023/03/21 05:19:59;;;;;;;6.53;4.83;;;;;;;;;;5042702;28;20267;-73
2023/03/21 05:22:27;;;;;;;12.83;7.73;;;;;;;;;;5026643;28;20186;-73
2023/03/21 05:24:54;;;;;;;10.03;6.87;;;;;;;;;;5027623;28;20252;-72
2023/03/21 05:27:53;;;;;;;32.43;10.73;;;;;;;;;;5034313;28;20202;-73
2023/03/21 05:30:20;;;;;;;18.30;8.60;;;;;;;;;;5041024;28;20648;-74
2023/03/21 05:32:49;;;;;;;23.93;8.93;;;;;;;;;;5040807;28;20251;-73
2023/03/21 05:35:16;;;;;;;25.70;11.10;;;;;;;;;;5043629;28;20673;-73
2023/03/21 05:37:42;;;;;;;21.10;10.50;;;;;;;;;;5032355;28;20680;-72
2023/03/21 05:40:09;;;;;;;15.83;8.77;;;;;;;;;;5043421;28;20269;-71
2023/03/21 05:42:37;;;;;;;11.60;6.90;;;;;;;;;;5026440;28;20194;-73
2023/03/21 05:45:13;;;;;;;8.00;6.07;;;;;;;;;;5033963;28;20293;-72
2023/03/21 05:47:39;;;;;;;7.13;5.43;;;;;;;;;;5042884;28;20177;-74
2023/03/21 05:50:06;;;;;;;6.63;5.03;;;;;;;;;;5026591;28;20850;-73
2023/03/21 05:52:33;;;;;;;7.07;4.87;;;;;;;;;;5041916;28;20227;-79
2023/03/21 05:55:04;;;;;;;6.60;4.90;;;;;;;;;;5052415;28;20233;-76
2023/03/21 05:57:33;;;;;;;5.47;4.57;;;;;;;;;;5043125;28;20711;-73
2023/03/21 06:00:03;;;;;;;7.37;5.10;;;;;;;;;;5047370;28;20197;-73
2023/03/21 06:02:41;;;;;;;6.13;4.33;;;;;;;;;;5044810;28;20189;-75
2023/03/21 06:05:19;;;;;;;6.90;4.57;;;;;;;;;;5056693;28;20205;-73
2023/03/21 06:07:45;;;;;;;8.63;4.33;;;;;;;;;;5045221;28;20208;-75
2023/03/21 06:10:12;;;;;;;6.73;4.33;;;;;;;;;;5028270;28;20243;-74
2023/03/21 06:12:42;;;;;;;9.17;5.50;;;;;;;;;;5045939;28;20235;-73
2023/03/21 06:15:26;;;;;;;7.20;5.03;;;;;;;;;;5061096;28;20205;-78
2023/03/21 06:18:05;;;;;;;12.50;7.90;;;;;;;;;;5048438;28;20181;-74
2023/03/21 06:20:31;;;;;;;10.73;6.47;;;;;;;;;;5052340;28;20560;-75
2023/03/21 06:23:05;;;;;;;9.10;5.50;;;;;;;;;;5046018;28;20192;-74
2023/03/21 06:25:31;;;;;;;10.30;5.67;;;;;;;;;;5033831;28;20750;-77
2023/03/21 06:27:57;;;;;;;8.40;5.13;;;;;;;;;;5049800;28;20585;-75
2023/03/21 06:30:25;;;;;;;7.20;5.47;;;;;;;;;;5051706;28;20284;-75
2023/03/21 06:33:02;;;;;;;8.03;5.50;;;;;;;;;;5016045;28;20178;-74
2023/03/21 06:35:28;;;;;;;7.33;5.47;;;;;;;;;;5044245;28;20202;-75
2023/03/21 06:37:56;;;;;;;8.67;5.50;;;;;;;;;;5046650;28;20178;-75
2023/03/21 06:40:22;;;;;;;8.93;5.83;;;;;;;;;;5065667;28;20178;-75
2023/03/21 06:42:50;;;;;;;6.43;4.90;;;;;;;;;;5049633;28;20897;-75
2023/03/21 06:45:16;;;;;;;9.23;5.90;;;;;;;;;;5046456;28;20214;-74
2023/03/21 06:47:43;;;;;;;7.47;5.73;;;;;;;;;;5050000;28;20189;-74
2023/03/21 06:50:18;;;;;;;7.20;5.37;;;;;;;;;;5042851;28;20217;-75
2023/03/21 06:52:44;;;;;;;7.33;5.17;;;;;;;;;;5056485;28;20602;-75
2023/03/21 06:55:12;;;;;;;10.73;5.60;;;;;;;;;;5068383;28;20218;-74
2023/03/21 06:57:38;;;;;;;8.63;5.40;;;;;;;;;;5049427;28;20662;-74
2023/03/21 07:00:07;;;;;;;8.87;5.40;;;;;;;;;;5049239;28;20574;-75
2023/03/21 07:02:34;;;;;;;7.73;5.70;;;;;;;;;;5050116;28;20186;-75
2023/03/21 07:05:11;;;;;;;9.50;5.97;;;;;;;;;;5050611;28;20216;-75
2023/03/21 07:07:38;;;;;;;7.83;5.43;;;;;;;;;;5047520;28;20185;-75
2023/03/21 07:10:04;;;;;;;8.80;5.93;;;;;;;;;;5045436;28;20190;-75
2023/03/21 07:12:39;;;;;;;7.67;5.53;;;;;;;;;;5047469;28;20204;-75
2023/03/21 07:15:19;;;;;;;9.27;5.57;;;;;;;;;;5032894;28;20676;-75
2023/03/21 07:17:46;;;;;;;7.80;5.47;;;;;;;;;;5042886;28;20170;-75
2023/03/21 07:20:12;;;;;;;9.10;5.87;;;;;;;;;;5042801;28;20196;-75
2023/03/21 07:22:39;;;;;;;10.33;5.90;;;;;;;;;;5027446;28;20186;-75
2023/03/21 07:25:06;;;;;;;8.57;5.77;;;;;;;;;;5048751;28;20201;-75
2023/03/21 07:27:37;;;;;;;7.43;6.03;;;;;;;;;;5045703;28;20185;-74
2023/03/21 07:30:04;;;;;;;7.50;6.43;;;;;;;;;;5045793;28;20194;-75
2023/03/21 07:32:34;;;;;;;9.53;6.40;;;;;;;;;;5044017;28;20236;-75
2023/03/21 07:35:01;;;;;;;8.97;6.27;;;;;;;;;;5041426;28;20673;-75
2023/03/21 07:37:27;;;;;;;8.33;6.73;;;;;;;;;;5031453;28;20181;-74
2023/03/21 07:39:54;;;;;;;9.13;6.63;;;;;;;;;;5045896;28;20181;-75
2023/03/21 07:42:20;;;;;;;11.33;6.90;;;;;;;;;;5046701;28;20185;-73
2023/03/21 07:44:46;;;;;;;9.07;6.50;;;;;;;;;;5045209;28;20654;-74
2023/03/21 07:47:12;;;;;;;9.67;6.90;;;;;;;;;;5047157;28;20717;-75
2023/03/21 07:49:38;;;;;;;9.03;6.87;;;;;;;;;;5046992;28;20189;-74
2023/03/21 07:52:06;;;;;;;10.67;6.97;;;;;;;;;;5061184;28;20209;-73
2023/03/21 07:54:32;;;;;;;8.30;5.70;;;;;;;;;;5047524;28;20628;-75
2023/03/21 07:56:59;;;;;;;8.63;6.57;;;;;;;;;;5046834;28;20208;-74
2023/03/21 07:59:25;;;;;;;9.97;6.40;;;;;;;;;;5040203;28;20221;-75
2023/03/21 08:01:51;;;;;;;10.20;6.57;;;;;;;;;;5042079;28;20324;-75
2023/03/21 08:04:17;;;;;;;7.50;6.40;;;;;;;;;;5044382;28;20346;-75
2023/03/21 08:06:43;;;;;;;11.10;6.60;;;;;;;;;;5038774;28;20291;-75
2023/03/21 08:09:09;;;;;;;9.83;6.70;;;;;;;;;;5041905;28;20651;-75
2023/03/21 08:11:35;;;;;;;6.20;5.60;;;;;;;;;;5048069;28;20202;-75
2023/03/21 08:14:02;;;;;;;7.83;6.23;;;;;;;;;;5045852;28;20203;-75
2023/03/21 08:16:28;;;;;;;9.47;6.77;;;;;;;;;;5046328;28;20173;-75
2023/03/21 08:18:54;;;;;;;9.93;6.93;;;;;;;;;;5050183;28;20211;-75
2023/03/21 08:21:20;;;;;;;7.00;5.97;;;;;;;;;;5047073;28;20190;-75
2023/03/21 08:23:46;;;;;;;10.00;7.00;;;;;;;;;;5047762;28;20272;-75
2023/03/21 08:26:17;;;;;;;11.17;6.77;;;;;;;;;;5056833;28;20220;-75
2023/03/21 08:28:43;;;;;;;7.93;6.50;;;;;;;;;;5048456;28;20184;-75
2023/03/21 08:31:10;;;;;;;8.67;6.73;;;;;;;;;;5046864;28;20212;-75
2023/03/21 08:33:36;;;;;;;8.30;6.40;;;;;;;;;;5048168;28;20178;-75
2023/03/21 08:36:03;;;;;;;8.47;5.87;;;;;;;;;;5047683;28;20293;-75
2023/03/21 08:38:32;;;;;;;8.03;6.00;;;;;;;;;;5048871;28;20587;-75
2023/03/21 08:41:00;;;;;;;8.67;5.50;;;;;;;;;;5049865;28;20220;-74
2023/03/21 08:43:27;;;;;;;10.13;5.43;;;;;;;;;;5050274;28;20189;-75
2023/03/21 08:45:54;;;;;;;7.73;6.13;;;;;;;;;;5044705;28;20252;-75
2023/03/21 08:48:20;;;;;;;8.07;6.40;;;;;;;;;;5050553;28;20197;-75
2023/03/21 08:50:46;;;;;;;7.50;5.50;;;;;;;;;;5046105;28;20235;-75
2023/03/21 08:53:12;;;;;;;7.03;5.50;;;;;;;;;;5043727;28;20243;-73
2023/03/21 08:55:38;;;;;;;8.70;5.63;;;;;;;;;;5048022;28;20197;-74
2023/03/21 08:58:05;;;;;;;8.60;6.13;;;;;;;;;;5045130;28;20557;-74
2023/03/21 09:00:32;;;;;;;7.43;5.70;;;;;;;;;;5046666;28;20327;-75
2023/03/21 09:02:58;;;;;;;6.37;5.17;;;;;;;;;;5044819;28;20182;-74
2023/03/21 09:05:25;;;;;;;9.60;5.70;;;;;;;;;;5045296;28;20263;-75
2023/03/21 09:07:52;;;;;;;9.97;6.10;;;;;;;;;;5046851;28;20186;-75
2023/03/21 09:10:20;;;;;;;8.13;5.40;;;;;;;;;;5051011;28;20206;-75
2023/03/21 09:12:46;;;;;;;6.77;5.77;;;;;;;;;;5045416;28;20178;-75
2023/03/21 09:15:13;;;;;;;7.07;5.63;;;;;;;;;;5047206;28;20229;-76
2023/03/21 09:17:42;;;;;;;8.23;5.67;;;;;;;;;;5048563;28;20647;-74
2023/03/21 09:20:17;;;;;;;7.87;5.77;;;;;;;;;;5049980;28;20182;-75
2023/03/21 09:22:45;;;;;;;11.53;6.20;;;;;;;;;;5048386;28;20642;-73
2023/03/21 09:25:12;;;;;;;9.53;5.53;;;;;;;;;;5063234;28;20213;-74
2023/03/21 09:27:38;;;;;;;9.23;6.00;;;;;;;;;;5047276;28;20193;-75
2023/03/21 09:30:05;;;;;;;8.00;5.40;;;;;;;;;;5047104;28;20188;-75
2023/03/21 09:32:32;;;;;;;6.37;4.53;;;;;;;;;;5051136;28;20275;-74
2023/03/21 09:34:59;;;;;;;5.60;4.87;;;;;;;;;;5051897;28;20335;-75
2023/03/21 09:37:25;;;;;;;7.90;5.60;;;;;;;;;;5049754;28;20178;-75
2023/03/21 09:39:51;;;;;;;7.57;5.53;;;;;;;;;;5049385;28;20551;-75
2023/03/21 09:42:42;;;;;;;6.03;5.00;;;;;;;;;;5048870;28;20720;-75
2023/03/21 09:45:27;;;;;;;8.97;5.97;;;;;;;;;;5034677;28;20282;-75
2023/03/21 09:47:55;;;;;;;7.17;5.50;;;;;;;;;;5048435;28;20186;-75
2023/03/21 09:50:26;;;;;;;8.37;6.03;;;;;;;;;;5034378;28;20209;-75
2023/03/21 09:52:57;;;;;;;7.67;6.10;;;;;;;;;;5048427;28;20237;-75
2023/03/21 09:55:31;;;;;;;7.93;5.70;;;;;;;;;;5067788;28;20205;-74
2023/03/21 09:58:03;;;;;;;7.00;5.67;;;;;;;;;;5038899;28;20190;-75
2023/03/21 10:00:33;;;;;;;8.30;6.20;;;;;;;;;;5050246;28;20207;-75
2023/03/21 10:03:02;;;;;;;7.83;5.97;;;;;;;;;;5048822;28;20272;-75
2023/03/21 10:05:30;;;;;;;8.90;5.83;;;;;;;;;;5050195;28;20206;-75
2023/03/21 10:08:03;;;;;;;7.90;6.53;;;;;;;;;;5049566;28;20243;-75
2023/03/21 10:10:36;;;;;;;8.97;6.30;;;;;;;;;;5059319;28;20216;-75
2023/03/21 10:13:03;;;;;;;8.03;6.00;;;;;;;;;;5043533;28;20178;-74
2023/03/21 10:15:29;;;;;;;9.33;5.53;;;;;;;;;;5042622;28;20277;-75
2023/03/21 10:18:04;;;;;;;7.33;5.93;;;;;;;;;;5046973;28;20182;-75
2023/03/21 10:20:31;;;;;;;7.47;5.77;;;;;;;;;;5047725;28;20196;-75
2023/03/21 10:22:59;;;;;;;7.33;5.47;;;;;;;;;;5042605;28;20186;-75
2023/03/21 10:25:29;;;;;;;7.53;5.20;;;;;;;;;;5058135;28;20285;-74
2023/03/21 10:27:56;;;;;;;7.50;6.10;;;;;;;;;;5046984;28;20196;-74
2023/03/21 10:30:48;;;;;;;6.87;5.90;;;;;;;;;;5052047;28;20359;-75
2023/03/21 10:33:16;;;;;;;6.67;5.70;;;;;;;;;;5046668;28;20620;-76
2023/03/21 10:35:44;;;;;;;8.50;6.10;;;;;;;;;;5054316;28;20194;-75
2023/03/21 10:38:15;;;;;;;10.30;7.40;;;;;;;;;;5029742;28;20246;-76
2023/03/21 10:40:41;;;;;;;6.87;5.80;;;;;;;;;;5049858;28;20202;-75
2023/03/21 10:43:19;;;;;;;6.60;5.87;;;;;;;;;;5060143;28;20203;-76
2023/03/21 10:45:47;;;;;;;8.47;6.20;;;;;;;;;;5031223;28;20603;-75
2023/03/21 10:48:14;;;;;;;8.73;6.07;;;;;;;;;;5043573;28;20197;-76
2023/03/21 10:50:41;;;;;;;10.70;6.20;;;;;;;;;;5060456;28;20212;-74
2023/03/21 10:53:12;;;;;;;7.23;5.53;;;;;;;;;;5047828;28;20186;-75
2023/03/21 10:55:40;;;;;;;8.00;6.93;;;;;;;;;;5050352;28;20201;-75
2023/03/21 10:58:09;;;;;;;7.07;5.77;;;;;;;;;;5047593;28;20657;-73
2023/03/21 11:00:40;;;;;;;6.63;5.57;;;;;;;;;;5046637;28;20185;-76
2023/03/21 11:03:08;;;;;;;8.23;5.43;;;;;;;;;;5043489;28;20223;-76
2023/03/21 11:05:36;;;;;;;7.17;4.67;;;;;;;;;;5035864;28;20233;-75
2023/03/21 11:08:16;;;;;;;6.47;4.90;;;;;;;;;;5045415;28;20647;-76
2023/03/21 11:10:52;;;;;;;6.07;4.83;;;;;;;;;;5046679;28;20213;-75
2023/03/21 11:13:23;;;;;;;6.17;4.73;;;;;;;;;;5042238;28;20189;-76
2023/03/21 11:15:54;;;;;;;7.10;4.70;;;;;;;;;;5046781;28;20208;-76
2023/03/21 11:18:24;;;;;;;5.30;3.93;;;;;;;;;;5048870;28;20181;-75
2023/03/21 11:20:53;;;;;;;4.63;3.70;;;;;;;;;;5047818;28;20192;-75
2023/03/21 11:23:19;;;;;;;6.63;3.77;;;;;;;;;;5048438;28;20740;-75
2023/03/21 11:25:47;;;;;;;5.47;4.23;;;;;;;;;;5062274;28;20239;-75
2023/03/21 11:28:16;;;;;;;4.67;3.97;;;;;;;;;;5040189;28;20193;-75
2023/03/21 11:30:53;;;;;;;6.67;4.30;;;;;;;;;;5047704;28;20217;-76
2023/03/21 11:33:20;;;;;;;5.00;4.07;;;;;;;;;;5044711;28;20221;-75
2023/03/21 11:35:57;;;;;;;5.10;4.40;;;;;;;;;;5041086;28;20218;-75
2023/03/21 11:38:26;;;;;;;6.17;4.60;;;;;;;;;;5042927;28;20173;-76
2023/03/21 11:40:53;;;;;;;4.60;3.97;;;;;;;;;;5048761;28;20199;-73
2023/03/21 11:43:21;;;;;;;5.60;4.13;;;;;;;;;;5042196;28;20195;-76
2023/03/21 11:45:57;;;;;;;4.57;3.90;;;;;;;;;;5049898;28;20206;-75
2023/03/21 11:48:24;;;;;;;5.90;3.90;;;;;;;;;;5045430;28;20541;-75
2023/03/21 11:50:52;;;;;;;6.07;4.00;;;;;;;;;;5049763;28;20221;-75
2023/03/21 11:53:35;;;;;;;5.10;3.43;;;;;;;;;;5044458;28;20189;-76
2023/03/21 11:56:10;;;;;;;4.07;3.43;;;;;;;;;;5043348;28;20259;-74
2023/03/21 11:59:02;;;;;;;4.93;3.70;;;;;;;;;;5051025;28;20209;-76
2023/03/21 12:01:28;;;;;;;5.60;3.60;;;;;;;;;;5039098;28;20198;-76
2023/03/21 12:04:13;;;;;;;4.70;3.87;;;;;;;;;;5046061;28;20256;-76
2023/03/21 12:06:46;;;;;;;5.53;3.73;;;;;;;;;;5046192;28;20244;-75
2023/03/21 12:09:26;;;;;;;4.13;3.57;;;;;;;;;;5046242;28;20248;-75
2023/03/21 12:12:11;;;;;;;5.53;3.60;;;;;;;;;;5048543;28;20267;-75
2023/03/21 12:14:37;;;;;;;5.20;3.87;;;;;;;;;;5047364;28;20660;-75
2023/03/21 12:17:03;;;;;;;8.33;4.67;;;;;;;;;;5032057;28;20204;-75
2023/03/21 12:19:38;;;;;;;4.97;3.67;;;;;;;;;;5049236;28;20256;-75
2023/03/21 12:22:17;;;;;;;7.07;4.57;;;;;;;;;;5031848;28;20189;-75
2023/03/21 12:24:43;;;;;;;7.07;4.90;;;;;;;;;;5046430;28;20273;-75
2023/03/21 12:27:32;;;;;;;4.90;3.73;;;;;;;;;;5029583;28;20688;-75
2023/03/21 12:30:22;;;;;;;5.17;3.50;;;;;;;;;;5049224;28;20200;-76
2023/03/21 12:32:54;;;;;;;4.03;3.07;;;;;;;;;;5033674;28;20256;-76
2023/03/21 12:35:26;;;;;;;7.47;4.53;;;;;;;;;;5048411;28;20255;-76
2023/03/21 12:38:11;;;;;;;11.10;6.00;;;;;;;;;;5045196;28;20214;-77
2023/03/21 12:40:46;;;;;;;19.83;8.67;;;;;;;;;;5048371;28;22373;-75
2023/03/21 12:43:23;;;;;;;6.43;4.57;;;;;;;;;;5046918;28;20198;-75
2023/03/21 12:45:51;;;;;;;5.30;3.80;;;;;;;;;;5048568;28;20208;-76
2023/03/21 12:48:22;;;;;;;4.07;3.50;;;;;;;;;;5040828;28;20665;-76
2023/03/21 12:50:50;;;;;;;4.40;3.73;;;;;;;;;;5048217;28;20216;-77
2023/03/21 12:53:35;;;;;;;4.70;3.43;;;;;;;;;;5030996;28;20218;-74
2023/03/21 12:56:04;;;;;;;4.30;3.60;;;;;;;;;;5050907;28;20240;-73
2023/03/21 12:58:33;;;;;;;5.57;3.30;;;;;;;;;;5030178;28;20194;-73
2023/03/21 13:01:00;;;;;;;5.20;3.40;;;;;;;;;;5048516;28;20189;-74
2023/03/21 13:03:29;;;;;;;4.63;3.30;;;;;;;;;;5051495;28;20287;-73
2023/03/21 13:06:00;;;;;;;3.63;3.33;;;;;;;;;;5053772;28;20261;-74
2023/03/21 13:08:37;;;;;;;3.87;3.30;;;;;;;;;;5049867;28;20197;-73
2023/03/21 13:11:05;;;;;;;6.17;3.80;;;;;;;;;;5047963;28;20224;-74
2023/03/21 13:13:34;;;;;;;4.20;3.57;;;;;;;;;;5050991;28;20178;-73
2023/03/21 13:16:06;;;;;;;4.70;3.80;;;;;;;;;;5051564;28;20198;-74
2023/03/21 13:18:45;;;;;;;4.70;3.50;;;;;;;;;;5041785;28;20208;-73
2023/03/21 13:21:15;;;;;;;5.50;3.90;;;;;;;;;;5050128;28;20201;-73
2023/03/21 13:23:54;;;;;;;4.63;3.70;;;;;;;;;;5049467;28;20626;-73
2023/03/21 13:26:20;;;;;;;6.20;3.40;;;;;;;;;;5045383;28;20182;-73
2023/03/21 13:28:47;;;;;;;4.50;3.20;;;;;;;;;;5046973;28;20190;-75
2023/03/21 13:31:21;;;;;;;4.17;3.30;;;;;;;;;;5049267;28;20267;-74
2023/03/21 13:33:48;;;;;;;4.53;3.23;;;;;;;;;;5048719;28;20645;-74
2023/03/21 13:36:16;;;;;;;4.87;3.30;;;;;;;;;;5051562;28;20207;-74
2023/03/21 13:38:48;;;;;;;4.57;3.23;;;;;;;;;;5051353;28;20180;-74
2023/03/21 13:41:19;;;;;;;5.77;3.00;;;;;;;;;;5046889;28;20178;-74
2023/03/21 13:44:01;;;;;;;3.07;2.63;;;;;;;;;;5053001;28;20195;-74
2023/03/21 13:46:30;;;;;;;3.63;2.90;;;;;;;;;;5048877;28;20240;-74
2023/03/21 13:49:01;;;;;;;5.07;3.00;;;;;;;;;;5047187;28;20277;-74
2023/03/21 13:51:36;;;;;;;4.50;2.60;;;;;;;;;;5051361;28;20201;-74
2023/03/21 13:54:16;;;;;;;4.07;3.63;;;;;;;;;;5046350;28;20543;-74
2023/03/21 13:56:45;;;;;;;6.23;3.23;;;;;;;;;;5049502;28;20281;-75
2023/03/21 13:59:12;;;;;;;3.63;3.20;;;;;;;;;;5049841;28;20201;-74
2023/03/21 14:01:40;;;;;;;5.13;3.27;;;;;;;;;;5048036;28;20191;-73
2023/03/21 14:04:11;;;;;;;3.57;3.20;;;;;;;;;;5045023;28;20193;-74
2023/03/21 14:06:41;;;;;;;3.40;2.87;;;;;;;;;;5048361;28;20210;-74
2023/03/21 14:09:08;;;;;;;4.90;3.07;;;;;;;;;;5057999;28;20622;-74
2023/03/21 14:11:35;;;;;;;5.93;3.90;;;;;;;;;;5051450;28;20213;-74
2023/03/21 14:14:02;;;;;;;5.63;3.70;;;;;;;;;;5043086;28;20185;-73
2023/03/21 14:16:28;;;;;;;4.33;2.93;;;;;;;;;;5034055;28;20194;-74
2023/03/21 14:18:56;;;;;;;3.27;2.80;;;;;;;;;;5042945;28;20574;-74
2023/03/21 14:21:23;;;;;;;3.57;2.80;;;;;;;;;;5051369;28;20190;-73
2023/03/21 14:23:56;;;;;;;4.53;3.53;;;;;;;;;;5050357;28;20177;-74
2023/03/21 14:26:22;;;;;;;5.10;3.10;;;;;;;;;;5037520;28;20245;-74
2023/03/21 14:28:49;;;;;;;4.13;3.10;;;;;;;;;;5060915;28;20191;-74
2023/03/21 14:31:17;;;;;;;4.00;3.20;;;;;;;;;;5063099;28;20221;-73
2023/03/21 14:33:50;;;;;;;4.23;3.33;;;;;;;;;;5033524;28;20174;-74
2023/03/21 14:36:18;;;;;;;5.57;3.30;;;;;;;;;;5049112;28;20575;-74
2023/03/21 14:38:52;;;;;;;7.07;3.80;;;;;;;;;;5056133;28;20186;-74
2023/03/21 14:41:23;;;;;;;5.83;3.80;;;;;;;;;;5048156;28;20185;-74
2023/03/21 14:44:02;;;;;;;5.33;3.10;;;;;;;;;;5050563;28;20228;-74
2023/03/21 14:46:28;;;;;;;4.57;3.97;;;;;;;;;;5049437;28;20189;-74
2023/03/21 14:48:55;;;;;;;4.80;3.87;;;;;;;;;;5041546;28;20194;-73
2023/03/21 14:51:29;;;;;;;6.47;3.40;;;;;;;;;;5047873;28;20709;-73
2023/03/21 14:53:56;;;;;;;8.40;4.93;;;;;;;;;;5048872;28;20205;-74
2023/03/21 14:56:24;;;;;;;7.87;4.73;;;;;;;;;;5032415;28;20207;-74